Alderson, Oklahoma
Current Conditions -  °F | °C
As of 8:53 AM on Friday 24 Oct 2014 (Local Time) from KMLC Reporting Station
Clear Clear  
Wind Chill: 58°   Ceiling: Unl
Heat Index: 58°   Visibility: 10mi
Dew Point: 53°   Wind: 5mph
Humidity: 84%   Direction: 220°SW
Pressure: 30.16"   Gusts: NA
Location:  34.9°N, 95.69°W
Report Text: KMLC 241353Z AUTO 22004KT 10SM CLR 14/12 A3016 RMK AO2 SLP210 T01440117
Loading
Personal Weather Stations






























Interactive Weather Map
Tropical Storm Tracking
New forecast layout! Learn more

10-Day Weather Forecast

Advertisements
Track Severe Weather on mobile